createdAt,value
2023-05-10T00:00:26.540Z,8.46
2023-05-10T00:03:11.154Z,8.32
2023-05-10T00:05:38.743Z,8.36
2023-05-10T00:08:06.638Z,8.37
2023-05-10T00:10:33.920Z,8.32
2023-05-10T00:13:01.655Z,8.30
2023-05-10T00:15:28.949Z,8.12
2023-05-10T00:17:56.979Z,8.08
2023-05-10T00:20:25.957Z,8.09
2023-05-10T00:22:53.592Z,8.09
2023-05-10T00:25:20.828Z,8.02
2023-05-10T00:27:48.538Z,8.03
2023-05-10T00:30:16.155Z,7.94
2023-05-10T00:32:44.101Z,7.92
2023-05-10T00:35:11.430Z,7.82
2023-05-10T00:37:40.594Z,7.81
2023-05-10T00:40:08.590Z,7.77
2023-05-10T00:42:36.408Z,7.71
2023-05-10T00:45:04.090Z,7.71
2023-05-10T00:47:33.170Z,7.71
2023-05-10T00:50:01.231Z,7.68
2023-05-10T00:52:29.458Z,7.61
2023-05-10T00:54:58.704Z,7.52
2023-05-10T00:57:26.309Z,7.56
2023-05-10T00:59:54.661Z,7.64
2023-05-10T01:02:22.353Z,7.65
2023-05-10T01:04:50.652Z,7.65
2023-05-10T01:07:18.446Z,7.60
2023-05-10T01:09:46.188Z,7.61
2023-05-10T01:12:16.383Z,7.72
2023-05-10T01:14:44.221Z,7.76
2023-05-10T01:17:13.409Z,7.87
2023-05-10T01:19:41.054Z,8.01
2023-05-10T01:22:23.351Z,8.15
2023-05-10T01:25:27.419Z,8.15
2023-05-10T01:28:24.990Z,8.04
2023-05-10T01:31:16.720Z,8.10
2023-05-10T01:33:49.813Z,8.16
2023-05-10T01:36:24.309Z,8.13
2023-05-10T01:38:56.889Z,8.10
2023-05-10T01:41:34.444Z,8.09
2023-05-10T01:44:07.450Z,8.21
2023-05-10T01:46:38.239Z,8.12
2023-05-10T01:49:10.712Z,8.10
2023-05-10T01:51:42.893Z,8.23
2023-05-10T01:54:10.649Z,8.11
2023-05-10T01:56:40.577Z,7.94
2023-05-10T01:59:14.148Z,7.97
2023-05-10T02:01:42.361Z,7.74
2023-05-10T02:04:16.786Z,7.67
2023-05-10T02:06:46.160Z,7.55
2023-05-10T02:09:15.267Z,7.59
2023-05-10T02:11:44.756Z,7.39
2023-05-10T02:14:13.675Z,7.17
2023-05-10T02:16:42.384Z,6.95
2023-05-10T02:19:13.179Z,6.90
2023-05-10T02:21:42.591Z,6.59
2023-05-10T02:24:12.496Z,6.59
2023-05-10T02:26:40.422Z,6.56
2023-05-10T02:29:10.266Z,6.54
2023-05-10T02:31:37.986Z,6.60
2023-05-10T02:34:08.942Z,6.70
2023-05-10T02:36:39.327Z,6.73
2023-05-10T02:39:08.813Z,6.71
2023-05-10T02:41:37.301Z,6.74
2023-05-10T02:44:08.580Z,6.81
2023-05-10T02:46:36.071Z,6.70
2023-05-10T02:49:03.949Z,6.60
2023-05-10T02:51:33.665Z,6.49
2023-05-10T02:54:11.367Z,6.49
2023-05-10T02:56:47.733Z,6.51
2023-05-10T02:59:15.545Z,6.55
2023-05-10T03:01:43.059Z,6.43
2023-05-10T03:04:10.839Z,6.42
2023-05-10T03:06:38.418Z,6.39
2023-05-10T03:09:08.329Z,6.43
2023-05-10T03:11:48.254Z,6.49
2023-05-10T03:14:27.213Z,6.35
2023-05-10T03:17:09.172Z,6.39
2023-05-10T03:19:44.470Z,6.29
2023-05-10T03:22:17.400Z,6.28
2023-05-10T03:24:47.750Z,6.34
2023-05-10T03:27:16.293Z,6.31
2023-05-10T03:29:45.738Z,6.35
2023-05-10T03:32:13.151Z,6.21
2023-05-10T03:34:43.252Z,6.25
2023-05-10T03:37:11.014Z,6.21
2023-05-10T03:39:39.093Z,6.26
2023-05-10T03:42:07.933Z,6.26
2023-05-10T03:44:35.704Z,6.31
2023-05-10T03:47:03.174Z,6.37
2023-05-10T03:49:31.057Z,6.39
2023-05-10T03:51:58.585Z,6.50
2023-05-10T03:54:26.440Z,6.63
2023-05-10T03:56:53.987Z,6.65
2023-05-10T03:59:23.307Z,6.70
2023-05-10T04:01:50.779Z,6.74
2023-05-10T04:04:18.549Z,6.82
2023-05-10T04:06:45.990Z,6.86
2023-05-10T04:09:13.938Z,6.91
2023-05-10T04:11:41.303Z,6.86
2023-05-10T04:14:09.126Z,6.96
2023-05-10T04:16:37.916Z,6.97
2023-05-10T04:19:05.668Z,7.16
2023-05-10T04:21:33.113Z,7.19
2023-05-10T04:24:00.805Z,7.17
2023-05-10T04:26:28.577Z,7.19
2023-05-10T04:28:56.372Z,7.29
2023-05-10T04:31:23.846Z,7.40
2023-05-10T04:33:53.437Z,7.62
2023-05-10T04:36:20.885Z,7.61
2023-05-10T04:38:48.490Z,7.63
2023-05-10T04:41:15.961Z,7.61
2023-05-10T04:43:43.656Z,7.68
2023-05-10T04:46:11.059Z,7.86
2023-05-10T04:48:38.923Z,7.79
2023-05-10T04:51:07.642Z,7.97
2023-05-10T04:53:35.343Z,8.02
2023-05-10T04:56:02.901Z,8.13
2023-05-10T04:58:30.890Z,8.36
2023-05-10T05:00:58.302Z,8.32
2023-05-10T05:03:26.150Z,8.22
2023-05-10T05:05:53.577Z,8.43
2023-05-10T05:08:22.357Z,8.40
2023-05-10T05:10:50.022Z,8.53
2023-05-10T05:13:17.444Z,8.61
2023-05-10T05:15:45.184Z,8.63
2023-05-10T05:18:12.499Z,8.81
2023-05-10T05:20:40.305Z,9.11
2023-05-10T05:23:07.679Z,9.33
2023-05-10T05:25:37.100Z,9.44
2023-05-10T05:28:04.789Z,9.44
2023-05-10T05:30:32.573Z,9.50
2023-05-10T05:32:59.927Z,9.59
2023-05-10T05:35:27.786Z,9.72
2023-05-10T05:37:55.235Z,10.08
2023-05-10T05:40:23.147Z,9.99
2023-05-10T05:42:52.203Z,10.20
2023-05-10T05:45:20.110Z,10.17
2023-05-10T05:47:47.643Z,10.17
2023-05-10T05:50:15.553Z,10.45
2023-05-10T05:52:43.838Z,10.58
2023-05-10T05:55:11.399Z,10.71
2023-05-10T05:57:39.474Z,10.67
2023-05-10T06:00:09.925Z,10.86
2023-05-10T06:02:38.053Z,11.21
2023-05-10T06:05:06.761Z,11.11
2023-05-10T06:07:34.622Z,11.39
2023-05-10T06:10:02.163Z,11.54
2023-05-10T06:12:29.963Z,11.65
2023-05-10T06:14:57.519Z,11.68
2023-05-10T06:17:28.317Z,11.77
2023-05-10T06:19:55.902Z,11.81
2023-05-10T06:22:23.805Z,12.11
2023-05-10T06:24:51.253Z,12.26
2023-05-10T06:27:18.971Z,12.39
2023-05-10T06:29:46.276Z,12.45
2023-05-10T06:32:13.931Z,12.58
2023-05-10T06:34:42.666Z,12.64
2023-05-10T06:37:10.496Z,12.80
2023-05-10T06:39:37.882Z,13.00
2023-05-10T06:42:05.839Z,12.88
2023-05-10T06:44:33.203Z,13.17
2023-05-10T06:47:01.082Z,13.25
2023-05-10T06:49:28.538Z,13.26
2023-05-10T06:51:58.199Z,13.73
2023-05-10T06:54:25.766Z,13.89
2023-05-10T06:56:53.681Z,13.82
2023-05-10T06:59:21.002Z,14.18
2023-05-10T07:01:48.862Z,14.33
2023-05-10T07:04:16.376Z,14.22
2023-05-10T07:06:44.278Z,14.12
2023-05-10T07:09:13.110Z,14.13
2023-05-10T07:11:40.730Z,14.22
2023-05-10T07:14:08.078Z,14.42
2023-05-10T07:16:35.952Z,14.56
2023-05-10T07:19:03.352Z,14.72
2023-05-10T07:21:31.104Z,14.96
2023-05-10T07:23:58.442Z,15.02
2023-05-10T07:26:27.722Z,14.97
2023-05-10T07:28:55.077Z,15.25
2023-05-10T07:31:22.814Z,15.42
2023-05-10T07:33:50.179Z,15.56
2023-05-10T07:36:17.911Z,15.66
2023-05-10T07:38:45.280Z,15.93
2023-05-10T07:41:16.325Z,16.07
2023-05-10T07:43:45.088Z,15.98
2023-05-10T07:46:12.894Z,15.98
2023-05-10T07:48:40.301Z,16.05
2023-05-10T07:51:08.052Z,15.90
2023-05-10T07:53:35.957Z,16.11
2023-05-10T07:56:23.399Z,16.12
2023-05-10T07:58:52.342Z,16.25
2023-05-10T08:01:20.022Z,16.20
2023-05-10T08:03:52.510Z,16.08
2023-05-10T08:06:21.393Z,16.23
2023-05-10T08:08:49.525Z,16.11
2023-05-10T08:11:17.563Z,16.29
2023-05-10T08:13:45.020Z,16.34
2023-05-10T08:16:17.850Z,16.56
2023-05-10T08:18:46.635Z,16.50
2023-05-10T08:21:20.812Z,16.64
2023-05-10T08:23:50.909Z,16.56
2023-05-10T08:26:20.040Z,16.71
2023-05-10T08:28:47.542Z,16.93
2023-05-10T08:31:21.228Z,16.97
2023-05-10T08:33:48.566Z,17.02
2023-05-10T08:36:16.241Z,17.43
2023-05-10T08:38:43.620Z,17.41
2023-05-10T08:41:12.055Z,17.60
2023-05-10T08:43:40.195Z,17.76
2023-05-10T08:46:09.518Z,17.60
2023-05-10T08:48:39.732Z,17.43
2023-05-10T08:51:08.858Z,17.54
2023-05-10T08:53:38.059Z,17.79
2023-05-10T08:56:06.818Z,17.49
2023-05-10T08:58:34.460Z,17.83
2023-05-10T09:01:02.579Z,18.01
2023-05-10T09:03:30.717Z,18.06
2023-05-10T09:06:00.169Z,17.95
2023-05-10T09:08:27.736Z,18.12
2023-05-10T09:10:55.813Z,18.15
2023-05-10T09:13:24.491Z,18.36
2023-05-10T09:15:53.033Z,18.24
2023-05-10T09:18:20.553Z,18.33
2023-05-10T09:20:50.059Z,18.44
2023-05-10T09:23:18.888Z,18.22
2023-05-10T09:25:46.807Z,18.41
2023-05-10T09:28:14.266Z,18.34
2023-05-10T09:30:42.022Z,18.79
2023-05-10T09:33:09.566Z,18.77
2023-05-10T09:35:37.348Z,19.20
2023-05-10T09:38:06.157Z,18.94
2023-05-10T09:40:35.298Z,18.85
2023-05-10T09:43:04.540Z,19.43
2023-05-10T09:45:36.191Z,19.16
2023-05-10T09:48:06.358Z,18.95
2023-05-10T09:50:34.345Z,18.96
2023-05-10T09:53:02.799Z,18.95
2023-05-10T09:55:42.776Z,19.17
2023-05-10T09:58:10.071Z,19.16
2023-05-10T10:00:39.786Z,18.99
2023-05-10T10:03:12.970Z,19.13
2023-05-10T10:05:42.037Z,19.19
2023-05-10T10:08:09.651Z,19.07
2023-05-10T10:10:37.606Z,19.10
2023-05-10T10:13:06.609Z,18.87
2023-05-10T10:15:35.269Z,19.38
2023-05-10T10:18:02.795Z,19.68
2023-05-10T10:20:30.848Z,20.07
2023-05-10T10:22:58.260Z,19.64
2023-05-10T10:25:26.342Z,19.55
2023-05-10T10:28:11.345Z,19.43
2023-05-10T10:30:43.577Z,19.49
2023-05-10T10:33:34.862Z,19.50
2023-05-10T10:36:04.155Z,19.64
2023-05-10T10:38:38.662Z,19.85
2023-05-10T10:41:11.936Z,19.97
2023-05-10T10:43:40.727Z,19.63
2023-05-10T10:46:13.180Z,19.62
2023-05-10T10:48:41.118Z,20.04
2023-05-10T10:51:10.714Z,20.22
2023-05-10T10:53:43.697Z,20.63
2023-05-10T10:56:11.574Z,20.57
2023-05-10T10:58:40.929Z,20.65
2023-05-10T11:01:14.407Z,20.23
2023-05-10T11:03:42.494Z,19.38
2023-05-10T11:06:10.432Z,19.05
2023-05-10T11:08:43.596Z,19.72
2023-05-10T11:11:15.741Z,20.01
2023-05-10T11:13:48.386Z,19.54
2023-05-10T11:16:19.453Z,19.57
2023-05-10T11:18:59.628Z,19.82
2023-05-10T11:21:27.445Z,19.94
2023-05-10T11:23:56.125Z,20.35
2023-05-10T11:26:24.862Z,20.03
2023-05-10T11:28:55.161Z,20.59
2023-05-10T11:31:23.737Z,20.32
2023-05-10T11:33:53.123Z,19.80
2023-05-10T11:36:22.204Z,19.90
2023-05-10T11:38:49.707Z,19.80
2023-05-10T11:41:19.906Z,19.92
2023-05-10T11:43:47.827Z,19.77
2023-05-10T11:46:20.432Z,20.39
2023-05-10T11:48:50.039Z,20.30
2023-05-10T11:51:21.502Z,20.05
2023-05-10T11:53:48.841Z,20.55
2023-05-10T11:56:19.440Z,21.07
2023-05-10T11:58:46.759Z,20.83
2023-05-10T12:01:18.067Z,20.90
2023-05-10T12:03:45.910Z,20.34
2023-05-10T12:06:13.822Z,19.86
2023-05-10T12:08:45.871Z,20.04
2023-05-10T12:11:14.611Z,19.91
2023-05-10T12:13:44.185Z,19.65
2023-05-10T12:16:17.643Z,19.51
2023-05-10T12:18:45.558Z,19.51
2023-05-10T12:21:13.608Z,20.09
2023-05-10T12:23:41.055Z,20.56
2023-05-10T12:26:10.660Z,20.71
2023-05-10T12:28:38.930Z,20.57
2023-05-10T12:31:07.933Z,20.24
2023-05-10T12:33:40.939Z,19.90
2023-05-10T12:36:09.366Z,19.57
2023-05-10T12:38:38.181Z,20.01
2023-05-10T12:41:07.669Z,20.18
2023-05-10T12:43:35.989Z,20.11
2023-05-10T12:46:07.943Z,20.02
2023-05-10T12:48:35.840Z,19.52
2023-05-10T12:51:05.774Z,19.37
2023-05-10T12:53:33.182Z,19.44
2023-05-10T12:56:00.882Z,19.42
2023-05-10T12:58:35.488Z,19.43
2023-05-10T13:01:04.336Z,19.38
2023-05-10T13:03:31.905Z,19.27
2023-05-10T13:06:00.484Z,19.40
2023-05-10T13:08:32.915Z,19.41
2023-05-10T13:14:47.572Z,19.02
2023-05-10T13:17:34.238Z,19.14
2023-05-10T13:20:01.800Z,19.56
2023-05-10T13:22:39.819Z,19.68
2023-05-10T13:25:10.214Z,19.48
2023-05-10T13:27:38.003Z,19.62
2023-05-10T13:30:06.722Z,19.58
2023-05-10T13:32:34.967Z,19.82
2023-05-10T13:35:03.028Z,20.41
2023-05-10T13:37:31.072Z,20.85
2023-05-10T13:39:58.432Z,20.52
2023-05-10T13:42:27.774Z,20.36
2023-05-10T13:44:55.528Z,20.28
2023-05-10T13:47:23.328Z,20.06
2023-05-10T13:49:50.855Z,19.83
2023-05-10T13:52:18.727Z,19.76
2023-05-10T13:54:46.056Z,20.09
2023-05-10T13:57:13.910Z,20.38
2023-05-10T13:59:42.687Z,20.46
2023-05-10T14:02:10.461Z,20.14
2023-05-10T14:04:38.043Z,20.03
2023-05-10T14:07:05.769Z,20.02
2023-05-10T14:09:33.230Z,19.97
2023-05-10T14:12:01.155Z,20.02
2023-05-10T14:14:28.707Z,19.96
2023-05-10T14:16:58.310Z,20.08
2023-05-10T14:19:26.021Z,20.19
2023-05-10T14:21:54.118Z,20.28
2023-05-10T14:24:21.666Z,20.09
2023-05-10T14:26:49.891Z,20.70
2023-05-10T14:29:17.648Z,20.95
2023-05-10T14:31:45.576Z,20.40
2023-05-10T14:34:14.588Z,20.22
2023-05-10T14:36:42.428Z,20.14
2023-05-10T14:39:10.071Z,20.21
2023-05-10T14:41:37.833Z,20.10
2023-05-10T14:44:05.337Z,20.12
2023-05-10T14:46:33.408Z,20.02
2023-05-10T14:49:00.897Z,19.96
2023-05-10T14:51:30.162Z,19.91
2023-05-10T14:53:57.586Z,19.93
2023-05-10T14:56:25.561Z,19.84
2023-05-10T14:58:53.625Z,19.80
2023-05-10T15:01:22.524Z,19.61
2023-05-10T15:03:50.235Z,19.69
2023-05-10T15:06:24.074Z,19.58
2023-05-10T15:08:53.096Z,19.48
2023-05-10T15:11:20.945Z,19.47
2023-05-10T15:13:48.469Z,19.74
2023-05-10T15:16:16.383Z,20.01
2023-05-10T15:18:43.927Z,19.83
2023-05-10T15:21:11.831Z,19.73
2023-05-10T15:23:39.484Z,19.67
2023-05-10T15:26:08.706Z,19.68
2023-05-10T15:28:36.171Z,19.71
2023-05-10T15:31:03.976Z,19.64
2023-05-10T15:33:31.500Z,19.58
2023-05-10T15:35:59.441Z,19.56
2023-05-10T15:38:26.891Z,19.56
2023-05-10T15:40:57.854Z,19.68
2023-05-10T15:43:26.594Z,19.91
2023-05-10T15:45:54.472Z,19.79
2023-05-10T15:48:22.146Z,19.87
2023-05-10T15:50:50.101Z,20.03
2023-05-10T15:53:17.641Z,20.14
2023-05-10T15:55:45.333Z,20.05
2023-05-10T15:58:12.849Z,19.82
2023-05-10T16:00:42.355Z,19.68
2023-05-10T16:03:09.795Z,19.53
2023-05-10T16:05:37.696Z,19.60
2023-05-10T16:08:05.583Z,19.63
2023-05-10T16:10:33.432Z,19.66
2023-05-10T16:13:01.044Z,19.60
2023-05-10T16:15:28.655Z,19.60
2023-05-10T16:17:57.842Z,19.73
2023-05-10T16:20:26.058Z,19.88
2023-05-10T16:22:53.496Z,20.13
2023-05-10T16:25:21.210Z,20.38
2023-05-10T16:27:48.407Z,20.41
2023-05-10T16:30:16.285Z,20.49
2023-05-10T16:32:43.773Z,20.50
2023-05-10T16:35:12.976Z,20.19
2023-05-10T16:37:40.652Z,20.07
2023-05-10T16:40:09.047Z,19.98
2023-05-10T16:42:37.164Z,19.98
2023-05-10T16:45:05.273Z,19.82
2023-05-10T16:47:33.035Z,19.58
2023-05-10T16:50:00.882Z,19.45
2023-05-10T16:52:30.427Z,19.45
2023-05-10T16:54:58.080Z,19.46
2023-05-10T16:57:26.349Z,19.53
2023-05-10T16:59:54.164Z,19.71
2023-05-10T17:02:22.337Z,19.68
2023-05-10T17:04:50.410Z,19.52
2023-05-10T17:07:21.067Z,19.62
2023-05-10T17:09:49.995Z,19.56
2023-05-10T17:12:17.958Z,19.57
2023-05-10T17:14:45.249Z,19.44
2023-05-10T17:17:13.299Z,19.47
2023-05-10T17:19:40.735Z,19.46
2023-05-10T17:22:08.547Z,19.32
2023-05-10T17:24:35.933Z,19.23
2023-05-10T17:27:05.021Z,19.36
2023-05-10T17:29:32.490Z,19.39
2023-05-10T17:32:00.398Z,19.20
2023-05-10T17:34:27.975Z,19.12
2023-05-10T17:36:55.892Z,18.98
2023-05-10T17:39:23.247Z,18.93
2023-05-10T17:41:51.025Z,18.83
2023-05-10T17:44:19.864Z,18.76
2023-05-10T17:46:47.892Z,18.93
2023-05-10T17:49:15.320Z,19.10
2023-05-10T17:51:43.198Z,19.21
2023-05-10T17:54:10.599Z,19.20
2023-05-10T17:56:38.524Z,19.28
2023-05-10T17:59:06.062Z,19.29
2023-05-10T18:01:35.928Z,19.56
2023-05-10T18:04:06.902Z,19.55
2023-05-10T18:06:36.714Z,19.20
2023-05-10T18:09:04.439Z,18.87
2023-05-10T18:11:32.290Z,18.59
2023-05-10T18:13:59.657Z,18.19
2023-05-10T18:16:27.430Z,18.24
2023-05-10T18:18:56.311Z,18.04
2023-05-10T18:21:24.159Z,17.98
2023-05-10T18:23:51.578Z,17.85
2023-05-10T18:26:19.387Z,17.77
2023-05-10T18:28:46.734Z,17.79
2023-05-10T18:31:14.795Z,17.77
2023-05-10T18:33:42.346Z,17.51
2023-05-10T18:36:11.631Z,17.51
2023-05-10T18:38:39.018Z,17.65
2023-05-10T18:41:06.888Z,17.67
2023-05-10T18:43:34.595Z,17.62
2023-05-10T18:46:02.270Z,17.63
2023-05-10T18:48:30.165Z,17.73
2023-05-10T18:50:57.798Z,17.82
2023-05-10T18:53:26.660Z,17.74
2023-05-10T18:55:57.588Z,17.65
2023-05-10T18:58:25.386Z,17.60
2023-05-10T19:00:53.393Z,17.73
2023-05-10T19:03:21.230Z,17.85
2023-05-10T19:05:49.245Z,17.65
2023-05-10T19:08:16.661Z,17.54
2023-05-10T19:10:46.082Z,17.42
2023-05-10T19:13:13.698Z,17.44
2023-05-10T19:15:41.571Z,17.27
2023-05-10T19:18:09.750Z,17.04
2023-05-10T19:20:40.241Z,16.94
2023-05-10T19:23:10.349Z,16.89
2023-05-10T19:25:38.240Z,17.02
2023-05-10T19:28:07.158Z,17.00
2023-05-10T19:30:35.260Z,17.10
2023-05-10T19:33:03.758Z,17.28
2023-05-10T19:35:32.084Z,17.10
2023-05-10T19:37:59.605Z,17.15
2023-05-10T19:40:27.583Z,16.90
2023-05-10T19:42:55.697Z,16.89
2023-05-10T19:45:25.199Z,16.83
2023-05-10T19:47:52.868Z,16.90
2023-05-10T19:50:20.766Z,16.91
2023-05-10T19:52:48.242Z,16.91
2023-05-10T19:55:26.162Z,17.09
2023-05-10T19:57:53.609Z,16.99
2023-05-10T20:00:21.655Z,17.02
2023-05-10T20:02:50.950Z,16.95
2023-05-10T20:05:19.194Z,16.99
2023-05-10T20:07:46.969Z,16.89
2023-05-10T20:10:14.735Z,17.00
2023-05-10T20:12:42.175Z,17.01
2023-05-10T20:15:10.931Z,16.90
2023-05-10T20:17:38.626Z,16.85
2023-05-10T20:20:08.544Z,16.85
2023-05-10T20:22:35.953Z,16.86
2023-05-10T20:25:04.303Z,16.82
2023-05-10T20:27:31.749Z,16.85
2023-05-10T20:29:59.723Z,16.66
2023-05-10T20:32:27.034Z,16.74
2023-05-10T20:34:54.809Z,16.67
2023-05-10T20:37:24.202Z,16.66
2023-05-10T20:39:51.948Z,16.66
2023-05-10T20:42:19.325Z,16.77
2023-05-10T20:44:47.090Z,16.78
2023-05-10T20:47:15.474Z,16.82
2023-05-10T20:49:43.587Z,16.85
2023-05-10T20:52:11.649Z,16.69
2023-05-10T20:54:40.802Z,16.45
2023-05-10T20:57:08.252Z,16.34
2023-05-10T20:59:36.097Z,16.23
2023-05-10T21:02:03.590Z,16.25
2023-05-10T21:04:31.465Z,16.24
2023-05-10T21:06:58.908Z,16.17
2023-05-10T21:09:26.675Z,16.11
2023-05-10T21:11:55.715Z,16.00
2023-05-10T21:14:23.496Z,15.88
2023-05-10T21:16:53.730Z,15.75
2023-05-10T21:19:21.527Z,15.29
2023-05-10T21:21:48.986Z,14.91
2023-05-10T21:24:16.906Z,14.59
2023-05-10T21:26:44.781Z,14.40
2023-05-10T21:29:14.271Z,14.23
2023-05-10T21:31:41.552Z,14.41
2023-05-10T21:34:09.340Z,14.58
2023-05-10T21:36:36.911Z,14.45
2023-05-10T21:39:04.810Z,14.51
2023-05-10T21:41:32.205Z,14.69
2023-05-10T21:44:00.272Z,14.65
2023-05-10T21:46:29.062Z,14.37
2023-05-10T21:48:56.874Z,14.50
2023-05-10T21:51:24.254Z,14.61
2023-05-10T21:53:52.088Z,14.65
2023-05-10T21:56:21.509Z,14.77
2023-05-10T21:58:49.249Z,14.75
2023-05-10T22:01:16.834Z,14.86
2023-05-10T22:03:46.445Z,14.99
2023-05-10T22:06:14.067Z,15.05
2023-05-10T22:08:41.786Z,14.90
2023-05-10T22:11:09.191Z,14.97
2023-05-10T22:13:39.462Z,14.99
2023-05-10T22:16:06.860Z,15.19
2023-05-10T22:18:34.753Z,15.35
2023-05-10T22:21:03.917Z,15.30
2023-05-10T22:23:31.646Z,15.16
2023-05-10T22:26:01.064Z,15.09
2023-05-10T22:28:28.814Z,15.07
2023-05-10T22:30:56.443Z,14.74
2023-05-10T22:33:24.182Z,14.66
2023-05-10T22:35:51.498Z,14.53
2023-05-10T22:38:20.754Z,14.48
2023-05-10T22:40:48.120Z,14.59
2023-05-10T22:43:16.618Z,14.51
2023-05-10T22:45:43.882Z,14.37
2023-05-10T22:48:11.651Z,14.23
2023-05-10T22:50:39.368Z,14.25
2023-05-10T22:53:07.017Z,14.18
2023-05-10T22:55:36.272Z,14.16
2023-05-10T22:58:04.103Z,14.12
2023-05-10T23:00:31.359Z,14.09
2023-05-10T23:02:59.283Z,14.27
2023-05-10T23:05:26.736Z,14.29
2023-05-10T23:07:54.559Z,14.18
2023-05-10T23:10:21.983Z,14.18
2023-05-10T23:12:51.126Z,14.31
2023-05-10T23:15:18.607Z,14.42
2023-05-10T23:17:46.304Z,14.38
2023-05-10T23:20:13.848Z,14.28
2023-05-10T23:22:43.425Z,14.24
2023-05-10T23:25:11.018Z,14.32
2023-05-10T23:27:39.055Z,14.43
2023-05-10T23:30:09.320Z,14.52
2023-05-10T23:32:37.130Z,14.37
2023-05-10T23:35:05.161Z,14.51
2023-05-10T23:37:32.945Z,14.50
2023-05-10T23:40:00.453Z,14.45
2023-05-10T23:42:28.122Z,14.46
2023-05-10T23:44:55.576Z,14.31
2023-05-10T23:47:24.850Z,14.15
2023-05-10T23:49:52.205Z,14.08
2023-05-10T23:52:19.890Z,14.03
2023-05-10T23:54:47.296Z,14.19
2023-05-10T23:57:14.938Z,14.12
2023-05-10T23:59:42.332Z,14.04
